createdAt,value
2017-05-26T00:00:49.973Z,38.28
2017-05-26T00:01:59.925Z,38.18
2017-05-26T00:03:09.878Z,38.37
2017-05-26T00:04:20.142Z,38.28
2017-05-26T00:05:29.461Z,38.28
2017-05-26T00:06:39.727Z,38.46
2017-05-26T00:07:49.428Z,38.28
2017-05-26T00:08:59.085Z,38.37
2017-05-26T00:10:09.035Z,38.18
2017-05-26T00:11:18.994Z,38.37
2017-05-26T00:12:29.263Z,38.28
2017-05-26T00:13:38.899Z,38.28
2017-05-26T00:14:49.174Z,38.28
2017-05-26T00:15:59.132Z,38.18
2017-05-26T00:17:09.440Z,38.46
2017-05-26T00:18:19.075Z,38.37
2017-05-26T00:19:29.351Z,38.28
2017-05-26T00:20:39.616Z,38.28
2017-05-26T00:21:49.882Z,38.37
2017-05-26T00:22:59.520Z,38.37
2017-05-26T00:24:09.789Z,38.37
2017-05-26T00:25:20.063Z,38.37
2017-05-26T00:26:30.331Z,38.28
2017-05-26T00:27:39.969Z,38.37
2017-05-26T00:28:50.236Z,38.46
2017-05-26T00:30:00.190Z,38.28
2017-05-26T00:31:10.459Z,38.28
2017-05-26T00:32:20.431Z,38.37
2017-05-26T00:33:30.703Z,38.28
2017-05-26T00:34:40.656Z,38.46
2017-05-26T00:35:50.931Z,38.56
2017-05-26T00:37:00.884Z,38.46
2017-05-26T00:38:11.147Z,38.46
2017-05-26T00:39:21.106Z,38.37
2017-05-26T00:40:31.058Z,38.28
2017-05-26T00:41:41.342Z,38.37
2017-05-26T00:42:51.293Z,38.37
2017-05-26T00:44:01.251Z,38.56
2017-05-26T00:45:11.201Z,38.37
2017-05-26T00:46:21.155Z,38.28
2017-05-26T00:47:31.110Z,38.46
2017-05-26T00:48:40.750Z,38.56
2017-05-26T00:49:51.026Z,38.18
2017-05-26T00:51:01.308Z,38.18
2017-05-26T00:52:11.260Z,38.56
2017-05-26T00:53:20.966Z,38.56
2017-05-26T00:54:30.915Z,38.66
2017-05-26T00:55:41.172Z,38.56
2017-05-26T00:56:51.438Z,38.46
2017-05-26T00:58:01.709Z,38.46
2017-05-26T00:59:11.662Z,38.66
2017-05-26T01:00:21.615Z,38.46
2017-05-26T01:01:31.883Z,38.66
2017-05-26T01:02:41.862Z,38.66
2017-05-26T01:03:52.134Z,38.46
2017-05-26T01:05:02.406Z,38.56
2017-05-26T01:06:12.350Z,38.46
2017-05-26T01:07:21.998Z,38.66
2017-05-26T01:08:31.952Z,38.46
2017-05-26T01:09:41.916Z,38.76
2017-05-26T01:10:52.190Z,38.76
2017-05-26T01:12:01.824Z,38.85
2017-05-26T01:13:12.090Z,38.76
2017-05-26T01:14:21.731Z,39.04
2017-05-26T01:15:31.364Z,39.04
2017-05-26T01:16:41.009Z,39.04
2017-05-26T01:17:50.650Z,39.04
2017-05-26T01:19:00.917Z,39.14
2017-05-26T01:20:10.570Z,39.04
2017-05-26T01:21:20.841Z,39.24
2017-05-26T01:22:31.112Z,39.14
2017-05-26T01:23:41.378Z,39.04
2017-05-26T01:24:51.329Z,39.24
2017-05-26T01:26:01.598Z,38.95
2017-05-26T01:27:11.546Z,39.14
2017-05-26T01:28:21.554Z,39.14
2017-05-26T01:29:31.820Z,39.04
2017-05-26T01:30:41.460Z,38.95
2017-05-26T01:31:51.413Z,38.95
2017-05-26T01:33:01.048Z,38.95
2017-05-26T01:34:10.739Z,39.72
2017-05-26T01:35:21.004Z,39.72
2017-05-26T01:36:31.271Z,39.72
2017-05-26T01:37:41.561Z,39.24
2017-05-26T01:38:50.884Z,39.53
2017-05-26T01:40:00.521Z,39.43
2017-05-26T01:41:09.847Z,39.22
2017-05-26T01:42:19.484Z,39.24
2017-05-26T01:43:29.118Z,39.62
2017-05-26T01:44:39.390Z,39.62
2017-05-26T01:45:49.028Z,39.62
2017-05-26T01:46:58.675Z,39.62
2017-05-26T01:48:08.319Z,39.82
2017-05-26T01:49:18.279Z,39.62
2017-05-26T01:50:28.227Z,39.82
2017-05-26T01:51:38.181Z,40.3
2017-05-26T01:52:48.136Z,40.01
2017-05-26T01:53:58.090Z,40.01
2017-05-26T01:55:07.730Z,40.19
2017-05-26T01:56:17.996Z,39.72
2017-05-26T01:57:27.949Z,40.11
2017-05-26T01:58:38.220Z,40.2
2017-05-26T01:59:48.181Z,40.2
2017-05-26T02:00:58.136Z,40.2
2017-05-26T02:02:07.783Z,40.11
2017-05-26T02:03:17.418Z,40.2
2017-05-26T02:04:27.681Z,40.11
2017-05-26T02:05:37.941Z,40.11
2017-05-26T02:06:48.218Z,40.28
2017-05-26T02:07:58.175Z,40.37
2017-05-26T02:09:07.811Z,39.99
2017-05-26T02:10:18.079Z,40.69
2017-05-26T02:11:28.039Z,40.2
2017-05-26T02:12:38.309Z,40.39
2017-05-26T02:13:48.263Z,41.17
2017-05-26T02:14:58.217Z,40.49
2017-05-26T02:16:08.165Z,40.97
2017-05-26T02:17:18.137Z,41.14
2017-05-26T02:18:27.775Z,41.34
2017-05-26T02:19:38.051Z,41.07
2017-05-26T02:20:48.330Z,41.36
2017-05-26T02:21:58.311Z,41.07
2017-05-26T02:23:08.015Z,41.05
2017-05-26T02:24:18.297Z,40.97
2017-05-26T02:25:28.566Z,41.27
2017-05-26T02:26:38.202Z,41.24
2017-05-26T02:27:48.154Z,41.07
2017-05-26T02:28:58.434Z,40.88
2017-05-26T02:30:08.701Z,41.36
2017-05-26T02:31:18.968Z,41.17
2017-05-26T02:32:28.915Z,41.27
2017-05-26T02:33:38.870Z,41.05
2017-05-26T02:34:49.132Z,41.46
2017-05-26T02:35:59.399Z,41.44
2017-05-26T02:37:09.671Z,41.63
2017-05-26T02:38:19.623Z,41.44
2017-05-26T02:39:29.578Z,41.72
2017-05-26T02:40:39.528Z,41.65
2017-05-26T02:41:49.162Z,41.44
2017-05-26T02:42:59.430Z,41.63
2017-05-26T02:44:09.437Z,41.72
2017-05-26T02:45:19.389Z,42.11
2017-05-26T02:46:29.338Z,42.02
2017-05-26T02:47:39.291Z,42.11
2017-05-26T02:48:49.249Z,42.02
2017-05-26T02:49:59.204Z,41.53
2017-05-26T02:51:09.469Z,42.02
2017-05-26T02:52:19.425Z,42.11
2017-05-26T02:53:29.065Z,42.21
2017-05-26T02:54:39.015Z,42.21
2017-05-26T02:55:49.296Z,42.02
2017-05-26T02:56:59.558Z,42.11
2017-05-26T02:58:08.881Z,42.21
2017-05-26T02:59:18.839Z,42.21
2017-05-26T03:00:28.790Z,42.21
2017-05-26T03:01:38.422Z,42.49
2017-05-26T03:02:48.381Z,42.21
2017-05-26T03:03:58.333Z,42.3
2017-05-26T03:05:07.345Z,42.49
2017-05-26T03:06:17.300Z,42.59
2017-05-26T03:07:27.255Z,42.4
2017-05-26T03:08:37.205Z,42.49
2017-05-26T03:09:47.158Z,42.59
2017-05-26T03:10:57.427Z,42.79
2017-05-26T03:12:07.377Z,42.79
2017-05-26T03:13:17.330Z,42.59
2017-05-26T03:14:26.972Z,42.69
2017-05-26T03:15:37.241Z,42.59
2017-05-26T03:16:47.192Z,42.59
2017-05-26T03:17:57.263Z,42.97
2017-05-26T03:19:06.909Z,42.97
2017-05-26T03:20:16.550Z,42.59
2017-05-26T03:21:26.189Z,42.97
2017-05-26T03:22:36.142Z,42.88
2017-05-26T03:23:45.463Z,42.69
2017-05-26T03:24:55.744Z,42.79
2017-05-26T03:26:05.690Z,42.79
2017-05-26T03:27:15.012Z,42.69
2017-05-26T03:28:24.649Z,42.79
2017-05-26T03:29:34.614Z,42.97
2017-05-26T03:30:44.575Z,42.97
2017-05-26T03:31:54.526Z,43.07
2017-05-26T03:33:04.807Z,42.79
2017-05-26T03:34:14.453Z,43.07
2017-05-26T03:35:23.885Z,43.27
2017-05-26T03:36:33.844Z,42.97
2017-05-26T03:37:44.111Z,43.27
2017-05-26T03:38:54.383Z,43.07
2017-05-26T03:40:04.656Z,43.46
2017-05-26T03:41:14.925Z,43.55
2017-05-26T03:42:24.568Z,43.55
2017-05-26T03:43:34.519Z,43.27
2017-05-26T03:44:44.476Z,43.65
2017-05-26T03:45:54.752Z,43.85
2017-05-26T03:47:05.024Z,43.46
2017-05-26T03:48:14.975Z,43.65
2017-05-26T03:49:24.930Z,43.46
2017-05-26T03:50:34.893Z,43.65
2017-05-26T03:51:44.879Z,43.46
2017-05-26T03:52:54.941Z,43.55
2017-05-26T03:54:05.202Z,43.37
2017-05-26T03:55:15.159Z,43.55
2017-05-26T03:56:24.797Z,43.75
2017-05-26T03:57:35.072Z,43.85
2017-05-26T03:58:44.710Z,43.75
2017-05-26T03:59:54.660Z,43.75
2017-05-26T04:01:04.611Z,43.85
2017-05-26T04:02:14.561Z,43.85
2017-05-26T04:03:24.834Z,43.75
2017-05-26T04:04:34.788Z,43.75
2017-05-26T04:05:45.058Z,43.75
2017-05-26T04:06:55.324Z,43.75
2017-05-26T04:08:05.277Z,43.94
2017-05-26T04:09:15.239Z,44.04
2017-05-26T04:10:25.193Z,44.13
2017-05-26T04:11:35.458Z,43.94
2017-05-26T04:12:45.723Z,44.13
2017-05-26T04:13:55.698Z,44.32
2017-05-26T04:15:05.654Z,44.32
2017-05-26T04:16:15.603Z,43.75
2017-05-26T04:17:25.562Z,44.42
2017-05-26T04:18:35.515Z,44.23
2017-05-26T04:19:45.470Z,44.32
2017-05-26T04:20:55.742Z,44.23
2017-05-26T04:22:06.014Z,44.32
2017-05-26T04:23:16.282Z,44.23
2017-05-26T04:24:26.236Z,43.94
2017-05-26T04:25:36.190Z,44.04
2017-05-26T04:26:46.138Z,44.42
2017-05-26T04:27:56.405Z,44.23
2017-05-26T04:29:06.412Z,44.23
2017-05-26T04:30:16.680Z,44.13
2017-05-26T04:31:26.316Z,44.04
2017-05-26T04:32:35.952Z,44.23
2017-05-26T04:33:46.227Z,44.04
2017-05-26T04:34:56.188Z,44.04
2017-05-26T04:36:06.454Z,44.62
2017-05-26T04:37:16.731Z,44.32
2017-05-26T04:38:27.002Z,44.62
2017-05-26T04:39:36.951Z,43.94
2017-05-26T04:40:47.229Z,44.42
2017-05-26T04:41:56.872Z,44.71
2017-05-26T04:43:06.818Z,44.52
2017-05-26T04:44:16.786Z,44.52
2017-05-26T04:45:26.736Z,44.42
2017-05-26T04:46:37.003Z,44.42
2017-05-26T04:47:46.958Z,44.42
2017-05-26T04:48:56.915Z,44.62
2017-05-26T04:50:05.928Z,44.81
2017-05-26T04:51:15.902Z,44.62
2017-05-26T04:52:25.544Z,44.42
2017-05-26T04:53:35.875Z,44.71
2017-05-26T04:54:45.200Z,44.71
2017-05-26T04:55:55.474Z,44.9
2017-05-26T04:57:05.430Z,44.9
2017-05-26T04:58:15.384Z,44.62
2017-05-26T04:59:25.654Z,44.81
2017-05-26T05:00:35.919Z,44.83
2017-05-26T05:01:46.191Z,44.83
2017-05-26T05:02:56.456Z,44.15
2017-05-26T05:04:06.723Z,44.15
2017-05-26T05:05:16.675Z,43.67
2017-05-26T05:06:26.946Z,44.54
2017-05-26T05:07:37.214Z,44.54
2017-05-26T05:08:47.478Z,44.35
2017-05-26T05:09:57.443Z,44.15
2017-05-26T05:11:07.397Z,44.25
2017-05-26T05:12:17.347Z,44.73
2017-05-26T05:13:27.301Z,44.25
2017-05-26T05:14:37.567Z,43.67
2017-05-26T05:15:47.853Z,44.25
2017-05-26T05:16:58.183Z,44.45
2017-05-26T05:18:08.451Z,44.73
2017-05-26T05:19:18.096Z,44.93
2017-05-26T05:20:28.367Z,44.83
2017-05-26T05:21:38.326Z,44.83
2017-05-26T05:22:48.588Z,44.83
2017-05-26T05:23:58.555Z,44.45
2017-05-26T05:25:08.819Z,44.54
2017-05-26T05:26:19.089Z,44.25
2017-05-26T05:27:29.090Z,44.45
2017-05-26T05:28:39.047Z,44.73
2017-05-26T05:29:49.003Z,43.87
2017-05-26T05:30:59.274Z,44.54
2017-05-26T05:32:08.931Z,44.15
2017-05-26T05:33:18.883Z,44.54
2017-05-26T05:34:28.525Z,43.38
2017-05-26T05:35:38.166Z,43.19
2017-05-26T05:36:48.120Z,43.87
2017-05-26T05:37:58.069Z,44.15
2017-05-26T05:39:07.705Z,44.06
2017-05-26T05:40:17.976Z,43.77
2017-05-26T05:41:27.951Z,43.96
2017-05-26T05:42:38.211Z,43.87
2017-05-26T05:43:48.169Z,43.87
2017-05-26T05:44:58.447Z,43.48
2017-05-26T05:46:08.727Z,43.58
2017-05-26T05:47:18.688Z,43.58
2017-05-26T05:48:28.635Z,43.58
2017-05-26T05:49:38.601Z,43.38
2017-05-26T05:50:48.559Z,43.29
2017-05-26T05:51:58.526Z,43.38
2017-05-26T05:53:08.170Z,43.38
2017-05-26T05:54:18.438Z,43.1
2017-05-26T05:55:28.711Z,43.1
2017-05-26T05:56:38.662Z,43.1
2017-05-26T05:57:48.927Z,43.1
2017-05-26T05:58:59.205Z,43.19
2017-05-26T06:00:09.473Z,43.1
2017-05-26T06:01:19.431Z,43.19
2017-05-26T06:02:28.758Z,42.9
2017-05-26T06:03:38.393Z,42.71
2017-05-26T06:04:48.039Z,42.9
2017-05-26T06:05:58.310Z,42.61
2017-05-26T06:07:08.578Z,43
2017-05-26T06:08:18.533Z,43
2017-05-26T06:09:28.809Z,42.9
2017-05-26T06:10:39.071Z,43.19
2017-05-26T06:11:48.709Z,42.71
2017-05-26T06:12:58.984Z,42.8
2017-05-26T06:14:08.624Z,43.1
2017-05-26T06:15:18.581Z,43.19
2017-05-26T06:16:28.847Z,43
2017-05-26T06:17:38.797Z,42.9
2017-05-26T06:18:48.761Z,42.8
2017-05-26T06:19:58.404Z,43.1
2017-05-26T06:21:08.046Z,42.9
2017-05-26T06:22:17.377Z,42.8
2017-05-26T06:23:27.710Z,43
2017-05-26T06:24:37.979Z,43.1
2017-05-26T06:25:47.933Z,42.9
2017-05-26T06:26:57.576Z,42.8
2017-05-26T06:28:07.846Z,42.8
2017-05-26T06:29:17.487Z,42.9
2017-05-26T06:30:27.753Z,42.8
2017-05-26T06:31:37.394Z,43.19
2017-05-26T06:32:47.656Z,42.8
2017-05-26T06:33:57.620Z,43.29
2017-05-26T06:35:07.568Z,43.1
2017-05-26T06:36:17.838Z,42.9
2017-05-26T06:37:28.107Z,42.71
2017-05-26T06:38:38.373Z,42.9
2017-05-26T06:39:48.649Z,42.61
2017-05-26T06:40:58.604Z,42.61
2017-05-26T06:42:08.875Z,42.8
2017-05-26T06:43:18.527Z,42.8
2017-05-26T06:44:28.801Z,42.8
2017-05-26T06:45:39.071Z,42.52
2017-05-26T06:46:49.332Z,42.42
2017-05-26T06:47:59.601Z,42.8
2017-05-26T06:49:09.554Z,42.61
2017-05-26T06:50:19.516Z,42.52
2017-05-26T06:51:29.791Z,42.8
2017-05-26T06:52:39.742Z,42.42
2017-05-26T06:53:50.014Z,42.8
2017-05-26T06:54:59.968Z,42.42
2017-05-26T06:56:10.235Z,42.61
2017-05-26T06:57:20.505Z,42.61
2017-05-26T06:58:30.461Z,42.52
2017-05-26T06:59:40.129Z,42.8
2017-05-26T07:00:50.089Z,42.52
2017-05-26T07:01:59.763Z,42.42
2017-05-26T07:03:09.714Z,42.52
2017-05-26T07:04:19.681Z,42.8
2017-05-26T07:05:29.944Z,42.8
2017-05-26T07:06:39.585Z,42.61
2017-05-26T07:07:49.541Z,42.42
2017-05-26T07:08:59.497Z,42.52
2017-05-26T07:10:09.766Z,42.52
2017-05-26T07:11:19.405Z,42.61
2017-05-26T07:12:28.729Z,42.52
2017-05-26T07:13:38.369Z,42.61
2017-05-26T07:14:48.332Z,42.42
2017-05-26T07:15:58.598Z,42.71
2017-05-26T07:17:08.866Z,42.61
2017-05-26T07:18:19.137Z,42.71
2017-05-26T07:19:28.779Z,42.52
2017-05-26T07:20:38.429Z,42.52
2017-05-26T07:21:48.699Z,42.61
2017-05-26T07:22:58.961Z,42.9
2017-05-26T07:24:07.654Z,42.71
2017-05-26T07:25:17.795Z,42.8
2017-05-26T07:26:27.433Z,42.61
2017-05-26T07:27:37.699Z,42.61
2017-05-26T07:28:47.973Z,42.52
2017-05-26T07:29:57.927Z,42.32
2017-05-26T07:31:07.562Z,42.42
2017-05-26T07:32:17.515Z,42.23
2017-05-26T07:33:27.790Z,42.32
2017-05-26T07:34:37.743Z,42.42
2017-05-26T07:35:48.024Z,42.23
2017-05-26T07:36:57.666Z,42.13
2017-05-26T07:38:07.309Z,42.32
2017-05-26T07:39:17.644Z,42.13
2017-05-26T07:40:27.920Z,42.23
2017-05-26T07:41:37.872Z,42.42
2017-05-26T07:42:48.148Z,42.42
2017-05-26T07:43:57.802Z,42.13
2017-05-26T07:45:07.139Z,42.23
2017-05-26T07:46:17.085Z,42.03
2017-05-26T07:47:26.418Z,42.42
2017-05-26T07:48:36.050Z,42.52
2017-05-26T07:49:46.010Z,42.23
2017-05-26T07:50:56.278Z,42.42
2017-05-26T07:52:05.921Z,42.52
2017-05-26T07:53:15.560Z,42.42
2017-05-26T07:54:25.822Z,42.32
2017-05-26T07:55:35.467Z,42.52
2017-05-26T07:56:45.419Z,42.23
2017-05-26T07:57:55.375Z,42.23
2017-05-26T07:59:05.654Z,42.71
2017-05-26T08:00:15.928Z,42.52
2017-05-26T08:01:25.882Z,42.52
2017-05-26T08:02:35.209Z,42.32
2017-05-26T08:03:45.161Z,42.23
2017-05-26T08:04:55.118Z,42.13
2017-05-26T08:06:05.072Z,42.42
2017-05-26T08:07:15.335Z,42.52
2017-05-26T08:08:25.610Z,42.23
2017-05-26T08:09:35.568Z,42.32
2017-05-26T08:10:45.525Z,42.52
2017-05-26T08:11:55.802Z,42.13
2017-05-26T08:13:06.067Z,42.32
2017-05-26T08:14:16.021Z,42.32
2017-05-26T08:15:26.294Z,42.13
2017-05-26T08:16:35.928Z,42.32
2017-05-26T08:17:45.886Z,42.23
2017-05-26T08:18:55.566Z,42.42
2017-05-26T08:20:05.524Z,42.13
2017-05-26T08:21:14.878Z,42.23
2017-05-26T08:22:24.519Z,42.13
2017-05-26T08:23:34.791Z,42.42
2017-05-26T08:24:45.068Z,42.32
2017-05-26T08:25:55.021Z,42.32
2017-05-26T08:27:04.969Z,42.13
2017-05-26T08:28:14.607Z,42.32
2017-05-26T08:29:24.245Z,42.32
2017-05-26T08:30:34.215Z,42.32
2017-05-26T08:31:44.160Z,42.23
2017-05-26T08:32:54.112Z,42.32
2017-05-26T08:34:03.759Z,42.23
2017-05-26T08:35:14.026Z,42.32
2017-05-26T08:36:24.316Z,42.23
2017-05-26T08:37:33.951Z,42.23
2017-05-26T08:38:44.221Z,42.32
2017-05-26T08:39:54.493Z,42.23
2017-05-26T08:41:04.132Z,42.35
2017-05-26T08:42:13.772Z,42.03
2017-05-26T08:43:23.412Z,42.23
2017-05-26T08:44:33.364Z,42.42
2017-05-26T08:45:43.317Z,42.23
2017-05-26T08:46:53.589Z,42.13
2017-05-26T08:48:03.537Z,42.03
2017-05-26T08:49:13.183Z,42.13
2017-05-26T08:50:23.447Z,42.32
2017-05-26T08:51:33.401Z,42.13
2017-05-26T08:52:43.043Z,42.23
2017-05-26T08:53:53.373Z,42.23
2017-05-26T08:55:03.347Z,42.13
2017-05-26T08:56:13.347Z,42.23
2017-05-26T08:57:23.298Z,42.23
2017-05-26T08:58:33.255Z,42.42
2017-05-26T08:59:43.205Z,42.42
2017-05-26T09:00:53.483Z,42.32
2017-05-26T09:02:03.755Z,42.32
2017-05-26T09:03:14.027Z,42.35
2017-05-26T09:04:23.673Z,42.23
2017-05-26T09:05:33.627Z,42.32
2017-05-26T09:06:43.896Z,42.23
2017-05-26T09:07:54.163Z,42.42
2017-05-26T09:09:04.455Z,42.32
2017-05-26T09:10:14.725Z,42.42
2017-05-26T09:11:24.368Z,42.32
2017-05-26T09:12:33.689Z,42.13
2017-05-26T09:13:43.646Z,42.23
2017-05-26T09:14:53.598Z,42.23
2017-05-26T09:16:03.552Z,42.23
2017-05-26T09:17:13.816Z,41.94
2017-05-26T09:18:23.777Z,42.03
2017-05-26T09:19:33.738Z,42.13
2017-05-26T09:20:44.066Z,42.05
2017-05-26T09:21:53.719Z,42.32
2017-05-26T09:23:03.980Z,42.23
2017-05-26T09:24:13.624Z,41.94
2017-05-26T09:25:23.899Z,41.94
2017-05-26T09:26:33.537Z,42.23
2017-05-26T09:27:43.501Z,42.03
2017-05-26T09:28:53.456Z,42.03
2017-05-26T09:30:03.093Z,41.86
2017-05-26T09:31:13.041Z,42.32
2017-05-26T09:32:22.676Z,42.23
2017-05-26T09:33:32.947Z,42.23
2017-05-26T09:34:43.217Z,42.35
2017-05-26T09:35:53.177Z,42.32
2017-05-26T09:37:03.438Z,42.35
2017-05-26T09:38:13.072Z,42.32
2017-05-26T09:39:23.027Z,42.35
2017-05-26T09:40:32.666Z,41.94
2017-05-26T09:41:42.929Z,42.23
2017-05-26T09:42:52.571Z,42.23
2017-05-26T09:44:02.844Z,42.25
2017-05-26T09:45:13.118Z,42.25
2017-05-26T09:46:23.069Z,41.94
2017-05-26T09:47:33.340Z,42.32
2017-05-26T09:48:43.307Z,42.23
2017-05-26T09:49:53.261Z,42.05
2017-05-26T09:51:03.534Z,42.13
2017-05-26T09:52:12.855Z,42.44
2017-05-26T09:53:23.129Z,42.13
2017-05-26T09:54:32.764Z,42.03
2017-05-26T09:55:43.027Z,42.23
2017-05-26T09:56:52.672Z,42.23
2017-05-26T09:58:02.627Z,42.23
2017-05-26T09:59:12.902Z,41.96
2017-05-26T10:00:23.185Z,42.42
2017-05-26T10:01:33.461Z,42.23
2017-05-26T10:02:43.417Z,42.25
2017-05-26T10:03:53.746Z,42.15
2017-05-26T10:05:03.384Z,42.15
2017-05-26T10:06:12.710Z,41.96
2017-05-26T10:07:22.349Z,42.23
2017-05-26T10:08:32.617Z,42.23
2017-05-26T10:09:42.570Z,41.86
2017-05-26T10:10:52.527Z,42.35
2017-05-26T10:12:02.819Z,42.35
2017-05-26T10:13:12.765Z,42.25
2017-05-26T10:14:22.409Z,41.96
2017-05-26T10:15:32.366Z,41.86
2017-05-26T10:16:42.629Z,42.23
2017-05-26T10:17:52.899Z,42.35
2017-05-26T10:19:02.853Z,41.84
2017-05-26T10:20:13.126Z,41.86
2017-05-26T10:21:23.077Z,41.96
2017-05-26T10:22:33.345Z,42.25
2017-05-26T10:23:43.292Z,41.96
2017-05-26T10:24:53.265Z,42.15
2017-05-26T10:26:03.222Z,42.15
2017-05-26T10:27:13.177Z,42.03
2017-05-26T10:28:23.442Z,42.25
2017-05-26T10:29:33.715Z,41.86
2017-05-26T10:30:43.665Z,42.32
2017-05-26T10:31:53.943Z,42.25
2017-05-26T10:33:03.577Z,42.25
2017-05-26T10:34:13.528Z,42.25
2017-05-26T10:35:23.167Z,42.35
2017-05-26T10:36:33.437Z,42.23
2017-05-26T10:37:43.711Z,42.35
2017-05-26T10:38:53.665Z,42.25
2017-05-26T10:40:03.620Z,42.35
2017-05-26T10:41:12.939Z,42.15
2017-05-26T10:42:22.892Z,42.25
2017-05-26T10:43:33.154Z,41.94
2017-05-26T10:44:43.105Z,42.25
2017-05-26T10:45:53.058Z,42.15
2017-05-26T10:47:03.331Z,42.25
2017-05-26T10:48:13.278Z,42.25
2017-05-26T10:49:23.558Z,41.86
2017-05-26T10:50:33.200Z,42.25
2017-05-26T10:51:42.842Z,42.35
2017-05-26T10:52:52.801Z,42.05
2017-05-26T10:54:02.761Z,42.25
2017-05-26T10:55:12.100Z,42.15
2017-05-26T10:56:22.054Z,42.25
2017-05-26T10:57:32.006Z,42.15
2017-05-26T10:58:41.952Z,42.35
2017-05-26T10:59:51.607Z,42.15
2017-05-26T11:01:01.876Z,42.05
2017-05-26T11:02:11.829Z,42.15
2017-05-26T11:03:22.104Z,42.25
2017-05-26T11:04:31.741Z,42.03
2017-05-26T11:05:41.702Z,42.05
2017-05-26T11:06:50.399Z,42.15
2017-05-26T11:08:00.673Z,42.05
2017-05-26T11:09:10.316Z,42.15
2017-05-26T11:10:19.329Z,42.05
2017-05-26T11:11:28.964Z,42.15
2017-05-26T11:12:39.235Z,42.15
2017-05-26T11:13:49.507Z,42.15
2017-05-26T11:14:59.149Z,42.35
2017-05-26T11:16:09.416Z,42.25
2017-05-26T11:17:19.370Z,42.15
2017-05-26T11:18:29.329Z,42.15
2017-05-26T11:19:39.287Z,42.25
2017-05-26T11:20:49.241Z,41.96
2017-05-26T11:21:59.199Z,42.15
2017-05-26T11:23:09.153Z,42.54
2017-05-26T11:24:19.116Z,42.83
2017-05-26T11:25:29.382Z,42.73
2017-05-26T11:26:39.651Z,43.31
2017-05-26T11:27:49.915Z,43.12
2017-05-26T11:28:59.876Z,42.54
2017-05-26T11:30:09.835Z,42.25
2017-05-26T11:31:19.159Z,42.35
2017-05-26T11:32:29.112Z,42.15
2017-05-26T11:33:39.065Z,41.96
2017-05-26T11:34:49.340Z,41.96
2017-05-26T11:35:59.607Z,42.15
2017-05-26T11:37:09.570Z,42.15
2017-05-26T11:38:19.208Z,42.35
2017-05-26T11:39:29.160Z,42.35
2017-05-26T11:40:39.125Z,42.25
2017-05-26T11:41:49.384Z,42.35
2017-05-26T11:42:59.022Z,42.25
2017-05-26T11:44:09.290Z,42.35
2017-05-26T11:45:19.250Z,42.15
2017-05-26T11:46:29.513Z,42.54
2017-05-26T11:47:39.146Z,42.44
2017-05-26T11:48:49.417Z,42.73
2017-05-26T11:49:59.686Z,42.54
2017-05-26T11:51:09.962Z,42.83
2017-05-26T11:52:19.596Z,43.21
2017-05-26T11:53:29.546Z,43.21
2017-05-26T11:54:39.191Z,43.89
2017-05-26T11:55:49.141Z,43.21
2017-05-26T11:56:59.094Z,42.83
2017-05-26T11:58:09.370Z,43.5
2017-05-26T11:59:19.332Z,43.7
2017-05-26T12:00:29.304Z,43.6
2017-05-26T12:01:39.251Z,43.6
2017-05-26T12:02:48.891Z,43.89
2017-05-26T12:03:58.534Z,43.89
2017-05-26T12:05:08.169Z,43.21
2017-05-26T12:06:18.440Z,43.6
2017-05-26T12:07:28.093Z,43.31
2017-05-26T12:08:38.361Z,43.89
2017-05-26T12:09:47.997Z,43.79
2017-05-26T12:10:57.643Z,43.41
2017-05-26T12:12:07.593Z,43.79
2017-05-26T12:13:17.233Z,43.5
2017-05-26T12:14:27.519Z,43.41
2017-05-26T12:15:37.786Z,43.41
2017-05-26T12:16:47.429Z,43.5
2017-05-26T12:17:57.701Z,43.21
2017-05-26T12:19:07.992Z,43.31
2017-05-26T12:20:18.265Z,43.6
2017-05-26T12:21:28.218Z,43.02
2017-05-26T12:22:38.215Z,43.5
2017-05-26T12:23:48.485Z,43.5
2017-05-26T12:24:58.746Z,43.7
2017-05-26T12:26:08.725Z,43.31
2017-05-26T12:27:18.716Z,43.12
2017-05-26T12:28:28.672Z,43.6
2017-05-26T12:29:38.944Z,43.12
2017-05-26T12:30:49.268Z,43.5
2017-05-26T12:31:59.236Z,43.12
2017-05-26T12:33:08.880Z,43.31
2017-05-26T12:34:18.833Z,43.31
2017-05-26T12:35:28.790Z,43.31
2017-05-26T12:36:38.748Z,43.21
2017-05-26T12:37:48.426Z,43.02
2017-05-26T12:38:57.749Z,43.5
2017-05-26T12:40:08.066Z,43.21
2017-05-26T12:41:17.705Z,43.6
2017-05-26T12:42:27.659Z,43.41
2017-05-26T12:43:37.925Z,43.31
2017-05-26T12:44:47.568Z,43.12
2017-05-26T12:45:57.545Z,43.31
2017-05-26T12:47:07.186Z,43.41
2017-05-26T12:48:17.133Z,43.7
2017-05-26T12:49:26.772Z,43.31
2017-05-26T12:50:36.409Z,43.6
2017-05-26T12:51:46.679Z,43.7
2017-05-26T12:52:56.635Z,43.5
2017-05-26T12:54:06.589Z,43.02
2017-05-26T12:55:16.855Z,43.31
2017-05-26T12:56:26.802Z,43.5
2017-05-26T12:57:37.109Z,43.7
2017-05-26T12:58:47.379Z,43.7
2017-05-26T12:59:57.335Z,43.41
2017-05-26T13:01:06.666Z,43.6
2017-05-26T13:02:16.622Z,43.5
2017-05-26T13:03:26.267Z,43.7
2017-05-26T13:04:36.221Z,43.6
2017-05-26T13:05:46.490Z,43.6
2017-05-26T13:06:56.438Z,43.5
2017-05-26T13:08:05.758Z,43.89
2017-05-26T13:09:15.080Z,43.89
2017-05-26T13:10:24.712Z,43.89
2017-05-26T13:11:34.657Z,43.89
2017-05-26T13:12:44.293Z,43.5
2017-05-26T13:13:54.245Z,43.6
2017-05-26T13:15:03.890Z,43.6
2017-05-26T13:16:14.162Z,43.5
2017-05-26T13:17:23.800Z,43.31
2017-05-26T13:18:33.452Z,44.08
2017-05-26T13:19:43.719Z,44.37
2017-05-26T13:20:53.356Z,43.89
2017-05-26T13:22:03.319Z,43.5
2017-05-26T13:23:13.591Z,43.41
2017-05-26T13:24:23.233Z,44.18
2017-05-26T13:25:33.574Z,43.89
2017-05-26T13:26:43.837Z,43.79
2017-05-26T13:27:53.473Z,43.98
2017-05-26T13:29:03.109Z,43.98
2017-05-26T13:30:13.380Z,43.89
2017-05-26T13:31:23.022Z,43.79
2017-05-26T13:32:32.719Z,43.89
2017-05-26T13:33:42.670Z,43.89
2017-05-26T13:34:52.624Z,43.7
2017-05-26T13:36:01.629Z,43.7
2017-05-26T13:37:11.895Z,44.08
2017-05-26T13:38:21.845Z,43.79
2017-05-26T13:39:31.802Z,43.6
2017-05-26T13:40:42.069Z,43.04
2017-05-26T13:41:52.345Z,43.21
2017-05-26T13:43:02.611Z,43.24
2017-05-26T13:44:12.569Z,43.33
2017-05-26T13:45:22.858Z,43.6
2017-05-26T13:46:32.499Z,43.5
2017-05-26T13:47:42.765Z,43.12
2017-05-26T13:48:52.718Z,43.31
2017-05-26T13:50:02.385Z,43.6
2017-05-26T13:51:12.115Z,43.24
2017-05-26T13:52:21.757Z,43.21
2017-05-26T13:53:31.400Z,43.14
2017-05-26T13:54:41.345Z,43.33
2017-05-26T13:55:51.610Z,43.14
2017-05-26T13:57:01.562Z,43.41
2017-05-26T13:58:11.198Z,43.12
2017-05-26T13:59:20.519Z,43.14
2017-05-26T14:00:30.781Z,43.33
2017-05-26T14:01:40.731Z,43.21
2017-05-26T14:02:50.997Z,43.02
2017-05-26T14:04:00.950Z,43.12
2017-05-26T14:05:10.898Z,43.02
2017-05-26T14:06:21.161Z,43.52
2017-05-26T14:07:31.214Z,43.33
2017-05-26T14:08:41.160Z,43.21
2017-05-26T14:09:51.135Z,43.43
2017-05-26T14:11:01.088Z,43.43
2017-05-26T14:12:10.730Z,43.14
2017-05-26T14:13:20.682Z,42.85
2017-05-26T14:14:30.947Z,43.04
2017-05-26T14:15:41.234Z,43.33
2017-05-26T14:16:51.192Z,43.14
2017-05-26T14:18:00.834Z,42.94
2017-05-26T14:19:10.466Z,42.94
2017-05-26T14:20:20.417Z,42.85
2017-05-26T14:21:30.055Z,42.94
2017-05-26T14:22:40.323Z,42.66
2017-05-26T14:23:50.590Z,43.14
2017-05-26T14:24:59.922Z,42.75
2017-05-26T14:26:10.191Z,42.94
2017-05-26T14:27:20.460Z,43.24
2017-05-26T14:28:30.100Z,42.85
2017-05-26T14:29:40.056Z,42.85
2017-05-26T14:30:50.323Z,42.66
2017-05-26T14:31:59.958Z,43.04
2017-05-26T14:33:09.599Z,42.66
2017-05-26T14:34:19.549Z,42.56
2017-05-26T14:35:29.860Z,42.85
2017-05-26T14:36:40.125Z,42.75
2017-05-26T14:37:50.080Z,43.04
2017-05-26T14:38:59.719Z,42.94
2017-05-26T14:40:09.990Z,42.85
2017-05-26T14:41:19.627Z,43.04
2017-05-26T14:42:29.892Z,42.94
2017-05-26T14:43:39.840Z,42.94
2017-05-26T14:44:49.798Z,42.85
2017-05-26T14:45:59.760Z,43.12
2017-05-26T14:47:10.025Z,43.14
2017-05-26T14:48:20.291Z,42.75
2017-05-26T14:49:30.556Z,43.04
2017-05-26T14:50:40.841Z,42.94
2017-05-26T14:51:51.107Z,43.14
2017-05-26T14:53:01.105Z,43.04
2017-05-26T14:54:11.062Z,42.85
2017-05-26T14:55:21.017Z,43.04
2017-05-26T14:56:30.968Z,42.85
2017-05-26T14:57:40.916Z,42.94
2017-05-26T14:58:50.871Z,42.75
2017-05-26T15:00:00.898Z,43.04
2017-05-26T15:01:11.167Z,42.46
2017-05-26T15:02:21.432Z,42.56
2017-05-26T15:03:30.757Z,42.46
2017-05-26T15:04:40.708Z,42.46